Time;durP1;ratioP1;P1;durP2;ratioP2;P2;SDS_P1;SDS_P2;PMS_P1;PMS_P2;Temp;Humidity;BMP_temperature;BMP_pressure;BME280_temperature;BME280_humidity;BME280_pressure;Samples;Min_cycle;Max_cycle;Signal;HPM_P1;HPM_P2
2022/07/29 00:01:26;;;;;;;1.85;1.75;;;;;;;;;;6156639;23;20005;-74
2022/07/29 00:03:52;;;;;;;6.55;2.33;;;;;;;;;;6156085;23;20004;-74
2022/07/29 00:06:18;;;;;;;3.25;1.92;;;;;;;;;;6156204;23;20016;-74
2022/07/29 00:08:44;;;;;;;3.78;2.33;;;;;;;;;;6156426;23;20011;-74
2022/07/29 00:11:10;;;;;;;3.65;2.42;;;;;;;;;;6156930;23;20061;-74
2022/07/29 00:13:36;;;;;;;4.03;1.90;;;;;;;;;;6156119;23;19997;-74
2022/07/29 00:16:03;;;;;;;4.75;2.22;;;;;;;;;;6156511;23;20437;-74
2022/07/29 00:18:29;;;;;;;5.32;2.20;;;;;;;;;;6156764;23;20093;-74
2022/07/29 00:20:55;;;;;;;3.90;1.90;;;;;;;;;;6157209;23;20482;-74
2022/07/29 00:23:21;;;;;;;3.42;1.83;;;;;;;;;;6155958;23;20001;-74
2022/07/29 00:25:47;;;;;;;4.25;1.90;;;;;;;;;;6156464;23;20009;-74
2022/07/29 00:28:13;;;;;;;4.40;2.05;;;;;;;;;;6156535;23;20409;-74
2022/07/29 00:30:42;;;;;;;2.58;1.80;;;;;;;;;;6156494;23;20006;-74
2022/07/29 00:33:08;;;;;;;3.63;2.33;;;;;;;;;;6159179;23;20001;-74
2022/07/29 00:35:44;;;;;;;2.65;1.95;;;;;;;;;;6158417;23;20426;-74
2022/07/29 00:38:11;;;;;;;2.10;1.92;;;;;;;;;;6158912;23;20446;-74
2022/07/29 00:40:37;;;;;;;3.35;1.67;;;;;;;;;;6158372;23;20410;-74
2022/07/29 00:43:03;;;;;;;2.78;1.80;;;;;;;;;;6158115;23;20453;-74
2022/07/29 00:45:29;;;;;;;2.97;1.95;;;;;;;;;;6158225;23;20006;-74
2022/07/29 00:47:56;;;;;;;4.93;2.10;;;;;;;;;;6158323;23;20010;-74
2022/07/29 00:50:23;;;;;;;3.80;1.80;;;;;;;;;;6157878;23;20001;-74
2022/07/29 00:52:49;;;;;;;3.25;2.17;;;;;;;;;;6158013;23;20005;-74
2022/07/29 00:55:16;;;;;;;4.47;2.15;;;;;;;;;;6157666;23;20076;-74
2022/07/29 00:57:43;;;;;;;4.60;2.05;;;;;;;;;;6158171;23;20496;-74
2022/07/29 01:00:14;;;;;;;3.47;1.92;;;;;;;;;;6158202;23;20035;-74
2022/07/29 01:02:40;;;;;;;3.33;1.90;;;;;;;;;;6158553;23;20005;-74
2022/07/29 01:05:07;;;;;;;4.15;2.00;;;;;;;;;;6156882;23;20013;-74
2022/07/29 01:07:35;;;;;;;3.97;1.92;;;;;;;;;;6157014;23;20014;-74
2022/07/29 01:10:02;;;;;;;4.38;2.25;;;;;;;;;;6156978;23;20001;-74
2022/07/29 01:12:34;;;;;;;3.70;1.50;;;;;;;;;;6157486;23;20081;-74
2022/07/29 01:15:01;;;;;;;2.30;1.60;;;;;;;;;;6157783;23;20017;-74
2022/07/29 01:17:27;;;;;;;9.27;2.03;;;;;;;;;;6157490;23;20002;-74
2022/07/29 01:20:02;;;;;;;2.53;1.95;;;;;;;;;;6158231;23;20001;-74
2022/07/29 01:22:35;;;;;;;3.00;1.80;;;;;;;;;;6157869;23;20550;-74
2022/07/29 01:25:01;;;;;;;3.65;1.50;;;;;;;;;;6157335;23;20376;-74
2022/07/29 01:27:39;;;;;;;4.15;1.90;;;;;;;;;;6157517;23;20009;-74
2022/07/29 01:30:05;;;;;;;2.85;1.58;;;;;;;;;;6158000;23;20001;-74
2022/07/29 01:32:36;;;;;;;4.00;2.05;;;;;;;;;;6158606;23;20006;-74
2022/07/29 01:35:17;;;;;;;2.50;1.85;;;;;;;;;;6157715;23;20076;-74
2022/07/29 01:37:43;;;;;;;;;;;;;;;;;;6159096;23;20017;-74
2022/07/29 01:40:12;;;;;;;4.45;1.67;;;;;;;;;;6157228;23;19954;-74
2022/07/29 01:42:45;;;;;;;2.05;1.50;;;;;;;;;;6157329;23;20007;-74
2022/07/29 01:45:11;;;;;;;4.55;1.75;;;;;;;;;;6157472;23;20012;-74
2022/07/29 01:47:43;;;;;;;2.60;1.52;;;;;;;;;;6157701;23;20156;-74
2022/07/29 01:50:12;;;;;;;5.30;2.08;;;;;;;;;;6157703;23;20010;-74
2022/07/29 01:52:42;;;;;;;6.47;1.73;;;;;;;;;;6157764;23;20006;-74
2022/07/29 01:55:11;;;;;;;4.93;1.85;;;;;;;;;;6157046;23;20024;-74
2022/07/29 01:57:38;;;;;;;3.15;1.73;;;;;;;;;;6157329;23;20437;-74
2022/07/29 02:00:05;;;;;;;4.60;1.80;;;;;;;;;;6157640;23;20006;-74
2022/07/29 02:02:32;;;;;;;3.83;1.70;;;;;;;;;;6158620;23;20044;-74
2022/07/29 02:04:59;;;;;;;3.50;1.95;;;;;;;;;;6157178;23;20014;-74
2022/07/29 02:07:28;;;;;;;3.70;1.70;;;;;;;;;;6157529;23;20060;-74
2022/07/29 02:09:56;;;;;;;3.97;1.88;;;;;;;;;;6156960;23;20078;-74
2022/07/29 02:12:22;;;;;;;3.63;1.65;;;;;;;;;;6158199;23;20006;-74
2022/07/29 02:14:50;;;;;;;2.58;1.85;;;;;;;;;;6157291;23;20014;-74
2022/07/29 02:17:21;;;;;;;3.97;1.70;;;;;;;;;;6157598;23;20553;-74
2022/07/29 02:19:48;;;;;;;4.97;2.10;;;;;;;;;;6156851;23;20003;-74
2022/07/29 02:22:14;;;;;;;5.22;1.70;;;;;;;;;;6157412;23;20005;-74
2022/07/29 02:24:41;;;;;;;3.60;1.67;;;;;;;;;;6157127;23;20068;-74
2022/07/29 02:27:08;;;;;;;5.20;1.92;;;;;;;;;;6156900;23;20009;-74
2022/07/29 02:29:35;;;;;;;4.10;1.65;;;;;;;;;;6157365;23;20429;-74
2022/07/29 02:32:02;;;;;;;3.20;1.85;;;;;;;;;;6157939;23;20029;-74
2022/07/29 02:34:29;;;;;;;2.20;1.90;;;;;;;;;;6157555;23;20039;-74
2022/07/29 02:36:55;;;;;;;2.55;1.83;;;;;;;;;;6157300;23;20025;-74
2022/07/29 02:39:22;;;;;;;3.15;1.83;;;;;;;;;;6157055;23;20001;-74
2022/07/29 02:41:49;;;;;;;3.00;1.85;;;;;;;;;;6157937;23;20021;-74
2022/07/29 02:44:16;;;;;;;3.25;1.63;;;;;;;;;;6157153;23;20005;-74
2022/07/29 02:46:51;;;;;;;5.13;1.92;;;;;;;;;;6157235;23;20013;-74
2022/07/29 02:49:21;;;;;;;5.07;1.98;;;;;;;;;;6157026;23;20029;-74
2022/07/29 02:51:51;;;;;;;3.03;1.83;;;;;;;;;;6157905;23;20003;-74
2022/07/29 02:54:27;;;;;;;4.10;1.67;;;;;;;;;;6156942;23;20084;-74
2022/07/29 02:56:55;;;;;;;3.95;1.77;;;;;;;;;;6156376;23;20001;-74
2022/07/29 02:59:23;;;;;;;3.53;2.05;;;;;;;;;;6157221;23;20446;-74
2022/07/29 03:01:50;;;;;;;2.70;1.63;;;;;;;;;;6156732;23;20032;-74
2022/07/29 03:04:16;;;;;;;4.13;1.80;;;;;;;;;;6155683;23;20338;-74
2022/07/29 03:06:43;;;;;;;3.17;1.60;;;;;;;;;;6157050;23;20051;-74
2022/07/29 03:09:10;;;;;;;2.50;1.88;;;;;;;;;;6156771;23;20010;-74
2022/07/29 03:11:37;;;;;;;3.78;1.83;;;;;;;;;;6156535;23;20008;-74
2022/07/29 03:14:03;;;;;;;3.35;1.73;;;;;;;;;;6157470;23;20024;-74
2022/07/29 03:16:29;;;;;;;3.08;1.65;;;;;;;;;;6157267;23;20019;-74
2022/07/29 03:18:56;;;;;;;1.92;1.63;;;;;;;;;;6156942;23;20031;-74
2022/07/29 03:21:22;;;;;;;3.35;2.10;;;;;;;;;;6156872;23;20426;-74
2022/07/29 03:23:48;;;;;;;2.63;1.70;;;;;;;;;;6156854;23;20005;-74
2022/07/29 03:26:14;;;;;;;2.63;1.77;;;;;;;;;;6156465;23;20002;-74
2022/07/29 03:28:40;;;;;;;2.38;1.73;;;;;;;;;;6156485;23;20012;-74
2022/07/29 03:31:06;;;;;;;2.63;1.80;;;;;;;;;;6157488;23;20009;-74
2022/07/29 03:33:33;;;;;;;3.55;1.77;;;;;;;;;;6156866;23;20060;-73
2022/07/29 03:35:59;;;;;;;3.17;1.73;;;;;;;;;;6156468;23;20433;-74
2022/07/29 03:38:27;;;;;;;4.10;1.85;;;;;;;;;;6156097;23;20005;-74
2022/07/29 03:41:03;;;;;;;4.57;2.00;;;;;;;;;;6156869;23;20009;-74
2022/07/29 03:43:33;;;;;;;5.40;2.13;;;;;;;;;;6157129;23;20006;-74
2022/07/29 03:46:00;;;;;;;3.78;1.85;;;;;;;;;;6156521;23;20497;-74
2022/07/29 03:48:27;;;;;;;3.03;1.70;;;;;;;;;;6156707;23;20006;-74
2022/07/29 03:50:53;;;;;;;5.32;1.88;;;;;;;;;;6156607;23;20032;-74
2022/07/29 03:53:19;;;;;;;5.13;1.67;;;;;;;;;;6156527;23;20020;-74
2022/07/29 03:55:47;;;;;;;4.10;2.10;;;;;;;;;;6156795;23;20032;-74
2022/07/29 03:58:13;;;;;;;3.53;1.70;;;;;;;;;;6156631;23;20001;-74
2022/07/29 04:00:41;;;;;;;4.18;1.80;;;;;;;;;;6154838;23;20009;-74
2022/07/29 04:03:07;;;;;;;3.38;1.67;;;;;;;;;;6157372;23;20056;-74
2022/07/29 04:05:33;;;;;;;5.15;1.90;;;;;;;;;;6156518;23;20011;-74
2022/07/29 04:07:59;;;;;;;4.85;1.95;;;;;;;;;;6158940;23;20013;-74
2022/07/29 04:10:25;;;;;;;3.22;1.70;;;;;;;;;;6158409;23;20028;-73
2022/07/29 04:12:52;;;;;;;2.88;1.75;;;;;;;;;;6159369;23;20005;-74
2022/07/29 04:15:18;;;;;;;3.08;1.90;;;;;;;;;;6158292;23;20005;-74
2022/07/29 04:17:44;;;;;;;5.53;2.30;;;;;;;;;;6158628;23;20001;-74
2022/07/29 04:20:13;;;;;;;2.63;1.85;;;;;;;;;;6158205;23;20421;-74
2022/07/29 04:22:39;;;;;;;3.47;1.70;;;;;;;;;;6158571;23;20068;-74
2022/07/29 04:25:06;;;;;;;3.75;2.20;;;;;;;;;;6158218;23;20084;-74
2022/07/29 04:27:32;;;;;;;5.53;1.63;;;;;;;;;;6158519;23;20006;-74
2022/07/29 04:29:58;;;;;;;6.57;1.92;;;;;;;;;;6158575;23;20001;-73
2022/07/29 04:32:24;;;;;;;4.72;1.90;;;;;;;;;;6158158;23;20437;-73
2022/07/29 04:34:50;;;;;;;2.80;1.63;;;;;;;;;;6158092;23;20083;-73
2022/07/29 04:37:17;;;;;;;2.92;2.03;;;;;;;;;;6158029;23;20006;-74
2022/07/29 04:39:43;;;;;;;5.07;1.95;;;;;;;;;;6157852;23;20073;-73
2022/07/29 04:42:09;;;;;;;3.53;2.08;;;;;;;;;;6158091;23;20006;-74
2022/07/29 04:44:35;;;;;;;3.13;2.33;;;;;;;;;;6158013;23;20016;-74
2022/07/29 04:47:01;;;;;;;4.55;2.40;;;;;;;;;;6158307;23;20009;-74
2022/07/29 04:49:27;;;;;;;5.03;2.63;;;;;;;;;;6158341;23;20009;-74
2022/07/29 04:51:54;;;;;;;3.33;2.00;;;;;;;;;;6158922;23;20001;-74
2022/07/29 04:54:20;;;;;;;2.47;2.10;;;;;;;;;;6157968;23;20025;-74
2022/07/29 04:56:46;;;;;;;3.97;2.25;;;;;;;;;;6158138;23;20438;-74
2022/07/29 04:59:12;;;;;;;3.67;2.00;;;;;;;;;;6158921;23;20001;-74
2022/07/29 05:01:38;;;;;;;3.20;2.20;;;;;;;;;;6158240;23;20006;-74
2022/07/29 05:04:04;;;;;;;6.60;2.08;;;;;;;;;;6158045;23;20002;-74
2022/07/29 05:06:31;;;;;;;5.47;2.28;;;;;;;;;;6157657;23;20017;-74
2022/07/29 05:08:57;;;;;;;6.40;2.35;;;;;;;;;;6158371;23;20486;-74
2022/07/29 05:11:23;;;;;;;3.55;2.42;;;;;;;;;;6158130;23;20014;-74
2022/07/29 05:13:49;;;;;;;3.17;2.00;;;;;;;;;;6158696;23;20006;-73
2022/07/29 05:16:15;;;;;;;3.42;2.33;;;;;;;;;;6158065;23;20006;-73
2022/07/29 05:18:42;;;;;;;2.70;2.22;;;;;;;;;;6157656;23;20020;-73
2022/07/29 05:21:08;;;;;;;4.07;2.20;;;;;;;;;;6158024;23;20006;-73
2022/07/29 05:23:34;;;;;;;6.75;2.25;;;;;;;;;;6157692;23;20076;-73
2022/07/29 05:26:00;;;;;;;5.35;2.17;;;;;;;;;;6158531;23;20085;-73
2022/07/29 05:28:26;;;;;;;4.05;2.08;;;;;;;;;;6157572;23;20010;-73
2022/07/29 05:30:52;;;;;;;3.92;2.20;;;;;;;;;;6157560;23;20445;-73
2022/07/29 05:33:18;;;;;;;4.65;2.10;;;;;;;;;;6158298;23;20128;-73
2022/07/29 05:35:44;;;;;;;4.53;2.25;;;;;;;;;;6158005;23;20068;-73
2022/07/29 05:38:10;;;;;;;5.93;2.05;;;;;;;;;;6158330;23;20040;-74
2022/07/29 05:40:37;;;;;;;5.55;2.25;;;;;;;;;;6157474;23;20068;-74
2022/07/29 05:43:03;;;;;;;4.85;2.20;;;;;;;;;;6158534;23;20006;-74
2022/07/29 05:45:29;;;;;;;5.93;2.70;;;;;;;;;;6157404;23;20128;-73
2022/07/29 05:47:55;;;;;;;5.10;2.25;;;;;;;;;;6157770;23;20009;-73
2022/07/29 05:50:21;;;;;;;3.22;2.15;;;;;;;;;;6157843;23;20002;-74
2022/07/29 05:52:47;;;;;;;3.97;2.00;;;;;;;;;;6158442;23;20059;-73
2022/07/29 05:55:13;;;;;;;3.92;2.42;;;;;;;;;;6157975;23;20022;-73
2022/07/29 05:57:39;;;;;;;4.40;2.45;;;;;;;;;;6158333;23;20437;-73
2022/07/29 06:00:06;;;;;;;5.90;2.40;;;;;;;;;;6155474;23;20013;-74
2022/07/29 06:02:32;;;;;;;3.03;1.83;;;;;;;;;;6155190;23;20076;-73
2022/07/29 06:04:58;;;;;;;3.47;1.73;;;;;;;;;;6156680;23;20125;-73
2022/07/29 06:07:24;;;;;;;5.07;2.30;;;;;;;;;;6156862;23;20437;-73
2022/07/29 06:09:50;;;;;;;4.30;2.28;;;;;;;;;;6156494;23;20005;-73
2022/07/29 06:12:17;;;;;;;4.72;2.20;;;;;;;;;;6157326;23;20445;-73
2022/07/29 06:14:43;;;;;;;3.95;1.88;;;;;;;;;;6157045;23;20032;-72
2022/07/29 06:17:11;;;;;;;3.97;2.47;;;;;;;;;;6157209;23;20009;-73
2022/07/29 06:19:37;;;;;;;2.72;1.98;;;;;;;;;;6157010;23;20005;-72
2022/07/29 06:22:04;;;;;;;3.92;2.13;;;;;;;;;;6157404;23;20002;-72
2022/07/29 06:24:30;;;;;;;2.83;2.13;;;;;;;;;;6156501;23;20010;-72
2022/07/29 06:26:56;;;;;;;2.40;2.03;;;;;;;;;;6156867;23;20337;-72
2022/07/29 06:29:22;;;;;;;2.67;2.00;;;;;;;;;;6157024;23;20001;-72
2022/07/29 06:31:48;;;;;;;4.68;2.25;;;;;;;;;;6156981;23;20001;-72
2022/07/29 06:34:15;;;;;;;5.07;2.30;;;;;;;;;;6157360;23;20008;-72
2022/07/29 06:36:41;;;;;;;2.65;1.90;;;;;;;;;;6156831;23;20071;-72
2022/07/29 06:39:08;;;;;;;5.13;2.28;;;;;;;;;;6156680;23;20002;-72
2022/07/29 06:41:34;;;;;;;3.10;1.73;;;;;;;;;;6156624;23;20001;-72
2022/07/29 06:44:00;;;;;;;4.22;2.17;;;;;;;;;;6156529;23;20005;-73
2022/07/29 06:46:27;;;;;;;2.75;2.45;;;;;;;;;;6156694;23;20005;-72
2022/07/29 06:48:54;;;;;;;5.60;2.72;;;;;;;;;;6156953;23;20048;-68
2022/07/29 06:51:20;;;;;;;4.25;2.45;;;;;;;;;;6156687;23;20017;-69
2022/07/29 06:53:47;;;;;;;6.05;2.50;;;;;;;;;;6155875;23;20085;-69
2022/07/29 06:56:13;;;;;;;3.08;2.22;;;;;;;;;;6156607;23;20451;-68
2022/07/29 06:58:39;;;;;;;3.15;2.10;;;;;;;;;;6155605;23;20010;-68
2022/07/29 07:01:06;;;;;;;4.85;1.92;;;;;;;;;;6156975;23;20048;-68
2022/07/29 07:03:33;;;;;;;6.95;2.90;;;;;;;;;;6156959;23;20006;-68
2022/07/29 07:05:59;;;;;;;4.47;2.45;;;;;;;;;;6156527;23;20010;-68
2022/07/29 07:08:25;;;;;;;6.43;2.90;;;;;;;;;;6157159;23;20005;-68
2022/07/29 07:10:52;;;;;;;5.57;2.63;;;;;;;;;;6156133;23;20031;-68
2022/07/29 07:13:18;;;;;;;5.28;2.50;;;;;;;;;;6157148;23;20035;-68
2022/07/29 07:15:45;;;;;;;4.40;2.72;;;;;;;;;;6156842;23;20417;-68
2022/07/29 07:18:11;;;;;;;5.30;2.92;;;;;;;;;;6156780;23;20005;-68
2022/07/29 07:20:37;;;;;;;7.38;3.38;;;;;;;;;;6156255;23;20005;-68
2022/07/29 07:23:04;;;;;;;6.68;3.15;;;;;;;;;;6156881;23;20002;-68
2022/07/29 07:25:30;;;;;;;6.07;3.15;;;;;;;;;;6156771;23;20020;-68
2022/07/29 07:27:56;;;;;;;9.23;3.30;;;;;;;;;;6156898;23;20017;-68
2022/07/29 07:30:23;;;;;;;4.30;3.90;;;;;;;;;;6156586;23;20040;-68
2022/07/29 07:32:49;;;;;;;4.97;3.40;;;;;;;;;;6156273;23;20006;-68
2022/07/29 07:35:15;;;;;;;4.28;3.20;;;;;;;;;;6155920;23;20002;-68
2022/07/29 07:37:41;;;;;;;6.32;3.50;;;;;;;;;;6156671;23;20063;-68
2022/07/29 07:40:09;;;;;;;5.25;3.60;;;;;;;;;;6155924;23;20195;-68
2022/07/29 07:42:35;;;;;;;7.38;3.58;;;;;;;;;;6155374;23;20013;-69
2022/07/29 07:45:01;;;;;;;9.80;3.70;;;;;;;;;;6155790;23;20012;-68
2022/07/29 07:47:27;;;;;;;7.28;3.70;;;;;;;;;;6156406;23;20009;-68
2022/07/29 07:49:53;;;;;;;5.00;3.67;;;;;;;;;;6157356;23;20001;-68
2022/07/29 07:52:20;;;;;;;9.40;3.90;;;;;;;;;;6158434;23;20025;-68
2022/07/29 07:54:47;;;;;;;5.32;3.72;;;;;;;;;;6156448;23;20026;-69
2022/07/29 07:57:13;;;;;;;7.68;3.85;;;;;;;;;;6156354;23;20002;-69
2022/07/29 07:59:39;;;;;;;5.47;3.75;;;;;;;;;;6156539;23;20088;-69
2022/07/29 08:02:06;;;;;;;9.30;3.95;;;;;;;;;;6156160;23;20001;-69
2022/07/29 08:04:32;;;;;;;10.77;3.80;;;;;;;;;;6156600;23;20012;-69
2022/07/29 08:06:58;;;;;;;6.22;3.53;;;;;;;;;;6156309;23;20042;-69
2022/07/29 08:09:26;;;;;;;5.57;3.60;;;;;;;;;;6156159;23;20029;-69
2022/07/29 08:11:52;;;;;;;6.97;3.88;;;;;;;;;;6156969;23;20068;-69
2022/07/29 08:14:18;;;;;;;6.07;3.70;;;;;;;;;;6156060;23;20005;-69
2022/07/29 08:16:45;;;;;;;8.63;4.30;;;;;;;;;;6154912;23;20005;-69
2022/07/29 08:19:11;;;;;;;6.63;4.90;;;;;;;;;;6156029;23;20488;-69
2022/07/29 08:21:37;;;;;;;5.68;4.45;;;;;;;;;;6156264;23;20072;-69
2022/07/29 08:26:48;;;;;;;10.35;3.88;;;;;;;;;;6155633;23;20016;-69
2022/07/29 08:29:16;;;;;;;7.43;3.90;;;;;;;;;;6156523;23;20081;-69
2022/07/29 08:31:42;;;;;;;5.20;3.72;;;;;;;;;;6157069;23;20015;-69
2022/07/29 08:34:08;;;;;;;6.28;3.65;;;;;;;;;;6156834;23;20429;-70
2022/07/29 08:36:34;;;;;;;10.23;3.75;;;;;;;;;;6156485;23;20013;-70
2022/07/29 08:39:01;;;;;;;8.20;3.60;;;;;;;;;;6156382;23;20020;-70
2022/07/29 08:41:27;;;;;;;7.25;3.80;;;;;;;;;;6156509;23;20005;-70
2022/07/29 08:43:54;;;;;;;7.50;3.40;;;;;;;;;;6156585;23;20524;-70
2022/07/29 08:46:20;;;;;;;5.15;3.70;;;;;;;;;;6156403;23;20019;-70
2022/07/29 08:48:47;;;;;;;9.75;4.40;;;;;;;;;;6156485;23;20089;-70
2022/07/29 08:51:15;;;;;;;8.85;3.97;;;;;;;;;;6156080;23;20441;-70
2022/07/29 08:53:44;;;;;;;9.35;3.53;;;;;;;;;;6157513;23;20013;-71
2022/07/29 08:56:13;;;;;;;4.57;3.28;;;;;;;;;;6157936;23;20020;-71
2022/07/29 08:58:40;;;;;;;5.13;3.65;;;;;;;;;;6157104;23;20016;-71
2022/07/29 09:01:07;;;;;;;5.03;3.30;;;;;;;;;;6157976;23;20032;-71
2022/07/29 09:03:36;;;;;;;6.35;3.45;;;;;;;;;;6158323;23;20009;-71
2022/07/29 09:06:02;;;;;;;8.23;3.33;;;;;;;;;;6157990;23;20025;-71
2022/07/29 09:08:29;;;;;;;3.50;2.90;;;;;;;;;;6157562;23;20438;-71
2022/07/29 09:10:55;;;;;;;6.07;3.28;;;;;;;;;;6158126;23;20417;-71
2022/07/29 09:13:22;;;;;;;4.70;3.40;;;;;;;;;;6154947;23;20001;-71
2022/07/29 09:15:48;;;;;;;7.03;3.05;;;;;;;;;;6155346;23;20015;-71
2022/07/29 09:18:33;;;;;;;8.02;3.00;;;;;;;;;;6157725;23;20009;-70
2022/07/29 09:24:03;;;;;;;4.25;2.65;;;;;;;;;;6156977;23;20008;-71
2022/07/29 09:26:32;;;;;;;3.00;2.42;;;;;;;;;;6158082;23;20005;-71
2022/07/29 09:28:59;;;;;;;2.80;2.40;;;;;;;;;;6157564;23;20005;-71
2022/07/29 09:31:35;;;;;;;2.42;2.22;;;;;;;;;;6157643;23;20031;-71
2022/07/29 09:34:01;;;;;;;4.03;2.80;;;;;;;;;;6157021;23;20066;-70
2022/07/29 09:36:27;;;;;;;1.80;1.70;;;;;;;;;;6157482;23;20020;-70
2022/07/29 09:39:00;;;;;;;3.78;2.20;;;;;;;;;;6157202;23;20017;-70
2022/07/29 09:41:27;;;;;;;3.90;2.45;;;;;;;;;;6156416;23;20006;-70
2022/07/29 09:43:54;;;;;;;4.35;2.53;;;;;;;;;;6157588;23;20016;-70
2022/07/29 09:46:20;;;;;;;3.13;2.30;;;;;;;;;;6157312;23;20072;-71
2022/07/29 09:49:06;;;;;;;3.42;2.45;;;;;;;;;;6156845;23;20009;-70
2022/07/29 09:51:32;;;;;;;2.42;2.20;;;;;;;;;;6156833;23;20094;-70
2022/07/29 09:54:00;;;;;;;4.22;2.58;;;;;;;;;;6156860;23;20005;-70
2022/07/29 09:56:44;;;;;;;2.90;2.55;;;;;;;;;;6156584;23;20007;-70
2022/07/29 09:59:11;;;;;;;2.78;2.08;;;;;;;;;;6155305;23;20009;-71
2022/07/29 10:01:40;;;;;;;2.80;2.00;;;;;;;;;;6153289;23;20025;-71
2022/07/29 10:04:06;;;;;;;4.25;2.28;;;;;;;;;;6149792;23;20029;-71
2022/07/29 10:06:33;;;;;;;4.38;1.85;;;;;;;;;;6151244;23;20009;-71
2022/07/29 10:09:09;;;;;;;2.67;2.42;;;;;;;;;;6151876;23;20080;-71
2022/07/29 10:11:37;;;;;;;2.78;2.42;;;;;;;;;;6151159;23;20005;-71
2022/07/29 10:14:04;;;;;;;3.30;2.22;;;;;;;;;;6151822;23;20076;-71
2022/07/29 10:16:34;;;;;;;3.03;2.40;;;;;;;;;;6152523;23;20016;-70
2022/07/29 10:19:01;;;;;;;2.72;2.50;;;;;;;;;;6154327;23;20012;-70
2022/07/29 10:21:27;;;;;;;4.13;2.67;;;;;;;;;;6150526;23;20516;-71
2022/07/29 10:23:54;;;;;;;5.07;2.42;;;;;;;;;;6150832;23;20464;-71
2022/07/29 10:26:20;;;;;;;3.35;2.33;;;;;;;;;;6154672;23;20014;-71
2022/07/29 10:28:47;;;;;;;3.45;2.00;;;;;;;;;;6151777;23;20010;-71
2022/07/29 10:31:23;;;;;;;4.38;2.50;;;;;;;;;;6152230;23;20009;-71
2022/07/29 10:34:14;;;;;;;4.20;2.50;;;;;;;;;;6155859;23;20445;-71
2022/07/29 10:37:01;;;;;;;2.83;2.47;;;;;;;;;;6155547;23;20450;-71
2022/07/29 10:39:40;;;;;;;4.05;2.17;;;;;;;;;;6108632;23;20017;-71
2022/07/29 10:42:17;;;;;;;2.75;2.00;;;;;;;;;;6152294;23;19997;-71
2022/07/29 10:44:44;;;;;;;4.75;2.80;;;;;;;;;;6155156;23;20005;-71
2022/07/29 10:47:30;;;;;;;5.07;2.08;;;;;;;;;;6156279;23;20010;-71
2022/07/29 10:50:04;;;;;;;3.17;2.30;;;;;;;;;;6155623;23;20001;-71
2022/07/29 10:52:48;;;;;;;3.53;2.47;;;;;;;;;;6155664;23;20006;-71
2022/07/29 10:55:34;;;;;;;3.75;2.45;;;;;;;;;;6154991;23;20035;-70
2022/07/29 10:58:12;;;;;;;3.42;2.53;;;;;;;;;;6154490;23;20055;-69
2022/07/29 11:00:38;;;;;;;2.80;2.05;;;;;;;;;;6156847;23;20063;-69
2022/07/29 11:03:04;;;;;;;2.78;2.35;;;;;;;;;;6158610;23;20072;-70
2022/07/29 11:05:31;;;;;;;3.35;2.50;;;;;;;;;;6155474;23;20044;-70
2022/07/29 11:08:13;;;;;;;5.13;2.42;;;;;;;;;;6155978;23;20084;-70
2022/07/29 11:10:40;;;;;;;3.15;2.50;;;;;;;;;;6156458;23;20069;-70
2022/07/29 11:13:06;;;;;;;3.53;2.60;;;;;;;;;;6156326;23;20005;-70
2022/07/29 11:15:53;;;;;;;5.13;2.67;;;;;;;;;;6156013;23;20010;-70
2022/07/29 11:18:19;;;;;;;3.80;2.72;;;;;;;;;;6156240;23;20334;-70
2022/07/29 11:20:49;;;;;;;5.47;3.00;;;;;;;;;;6156321;23;20001;-70
2022/07/29 11:23:23;;;;;;;6.05;2.80;;;;;;;;;;6155084;23;20013;-70
2022/07/29 11:26:08;;;;;;;3.60;2.60;;;;;;;;;;6155797;23;20087;-70
2022/07/29 11:28:34;;;;;;;3.33;2.45;;;;;;;;;;6155993;23;20385;-70
2022/07/29 11:31:01;;;;;;;6.63;2.85;;;;;;;;;;6156496;23;20008;-70
2022/07/29 11:33:28;;;;;;;5.60;2.60;;;;;;;;;;6156647;23;20032;-69
2022/07/29 11:36:14;;;;;;;7.05;2.50;;;;;;;;;;6155554;23;20001;-69
2022/07/29 11:38:40;;;;;;;3.40;2.97;;;;;;;;;;6155505;23;20017;-69
2022/07/29 11:41:25;;;;;;;5.07;2.78;;;;;;;;;;6156077;23;20009;-69
2022/07/29 11:43:57;;;;;;;4.82;2.90;;;;;;;;;;6156287;23;20445;-69
2022/07/29 11:46:42;;;;;;;4.70;2.75;;;;;;;;;;6155919;23;20017;-69
2022/07/29 11:49:09;;;;;;;7.00;3.45;;;;;;;;;;6155982;23;20066;-69
2022/07/29 11:51:38;;;;;;;4.22;3.00;;;;;;;;;;6155538;23;20008;-69
2022/07/29 11:54:05;;;;;;;4.15;3.15;;;;;;;;;;6154991;23;20012;-69
2022/07/29 11:56:32;;;;;;;4.35;2.80;;;;;;;;;;6156478;23;20005;-69
2022/07/29 11:59:10;;;;;;;7.35;3.42;;;;;;;;;;6155424;23;20002;-69
2022/07/29 12:01:36;;;;;;;8.43;3.80;;;;;;;;;;6156143;23;20001;-69
2022/07/29 12:04:04;;;;;;;4.88;2.83;;;;;;;;;;6155095;23;20005;-69
2022/07/29 12:06:30;;;;;;;4.20;3.10;;;;;;;;;;6154997;23;20085;-69
2022/07/29 12:08:57;;;;;;;5.35;3.20;;;;;;;;;;6156209;23;20016;-69
2022/07/29 12:11:24;;;;;;;11.70;3.55;;;;;;;;;;6150868;23;20005;-69
2022/07/29 12:13:51;;;;;;;6.28;3.10;;;;;;;;;;6155054;23;20033;-70
2022/07/29 12:16:17;;;;;;;3.78;2.90;;;;;;;;;;6154902;23;20016;-70
2022/07/29 12:18:54;;;;;;;7.68;3.20;;;;;;;;;;6153962;23;20453;-69
2022/07/29 12:21:21;;;;;;;4.22;3.10;;;;;;;;;;6154062;23;20036;-69
2022/07/29 12:23:54;;;;;;;4.05;2.60;;;;;;;;;;6154905;23;20008;-69
2022/07/29 12:26:20;;;;;;;5.70;3.22;;;;;;;;;;6155070;23;20016;-69
2022/07/29 12:28:47;;;;;;;4.57;2.83;;;;;;;;;;6155917;23;20013;-69
2022/07/29 12:31:14;;;;;;;3.53;2.95;;;;;;;;;;6155910;23;20007;-69
2022/07/29 12:33:40;;;;;;;3.45;2.47;;;;;;;;;;6156830;23;20014;-69
2022/07/29 12:36:07;;;;;;;11.75;2.58;;;;;;;;;;6155600;23;20010;-70
2022/07/29 12:38:36;;;;;;;3.45;2.53;;;;;;;;;;6156519;23;20377;-69
2022/07/29 12:41:03;;;;;;;3.08;2.60;;;;;;;;;;6156916;23;20084;-70
2022/07/29 12:43:29;;;;;;;4.00;2.53;;;;;;;;;;6157553;23;20028;-69
2022/07/29 12:45:56;;;;;;;3.95;2.92;;;;;;;;;;6156653;23;20009;-69
2022/07/29 12:48:39;;;;;;;4.75;2.75;;;;;;;;;;6155455;23;20010;-69
2022/07/29 12:51:07;;;;;;;5.50;2.80;;;;;;;;;;6156040;23;20126;-69
2022/07/29 12:53:34;;;;;;;3.63;2.90;;;;;;;;;;6155409;23;20016;-69
2022/07/29 12:56:03;;;;;;;4.63;2.83;;;;;;;;;;6154777;23;20127;-69
2022/07/29 12:58:30;;;;;;;3.65;3.00;;;;;;;;;;6156835;23;20088;-69
2022/07/29 13:01:06;;;;;;;3.67;2.38;;;;;;;;;;6157528;23;20006;-69
2022/07/29 13:03:45;;;;;;;4.55;2.72;;;;;;;;;;6156390;23;20008;-69
2022/07/29 13:06:29;;;;;;;3.10;2.40;;;;;;;;;;6156109;23;20036;-69
2022/07/29 13:09:04;;;;;;;3.90;2.60;;;;;;;;;;6156667;23;20426;-72
2022/07/29 13:11:34;;;;;;;5.10;2.65;;;;;;;;;;6156913;23;20005;-72
2022/07/29 13:14:00;;;;;;;6.43;2.78;;;;;;;;;;6156745;23;20032;-73
2022/07/29 13:16:27;;;;;;;3.00;2.50;;;;;;;;;;6156220;23;20015;-71
2022/07/29 13:19:06;;;;;;;5.45;2.63;;;;;;;;;;6155954;23;20081;-72
2022/07/29 13:21:33;;;;;;;6.63;2.65;;;;;;;;;;6156642;23;20037;-72
2022/07/29 13:23:59;;;;;;;7.35;2.30;;;;;;;;;;6156710;23;20006;-71
2022/07/29 13:26:25;;;;;;;7.70;2.60;;;;;;;;;;6156611;23;20039;-71
2022/07/29 13:28:51;;;;;;;4.65;2.88;;;;;;;;;;6157490;23;20001;-70
2022/07/29 13:31:17;;;;;;;3.72;2.47;;;;;;;;;;6157548;23;20002;-70
2022/07/29 13:33:44;;;;;;;4.75;2.70;;;;;;;;;;6157752;23;20009;-69
2022/07/29 13:36:10;;;;;;;8.20;2.40;;;;;;;;;;6157171;23;20009;-69
2022/07/29 13:38:36;;;;;;;4.40;2.58;;;;;;;;;;6156984;23;20028;-68
2022/07/29 13:41:02;;;;;;;6.28;2.67;;;;;;;;;;6156843;23;20064;-69
2022/07/29 13:43:28;;;;;;;6.38;3.10;;;;;;;;;;6157198;23;20075;-69
2022/07/29 13:45:55;;;;;;;5.20;2.80;;;;;;;;;;6157117;23;20009;-68
2022/07/29 13:48:21;;;;;;;4.32;2.50;;;;;;;;;;6156916;23;20009;-69
2022/07/29 13:50:47;;;;;;;3.88;2.70;;;;;;;;;;6157741;23;20012;-69
2022/07/29 13:53:14;;;;;;;4.20;2.60;;;;;;;;;;6157062;23;20034;-69
2022/07/29 13:55:40;;;;;;;6.00;2.85;;;;;;;;;;6157407;23;20092;-68
2022/07/29 13:58:06;;;;;;;6.35;2.92;;;;;;;;;;6157491;23;20005;-69
2022/07/29 14:00:32;;;;;;;6.60;2.63;;;;;;;;;;6157414;23;20449;-68
2022/07/29 14:02:58;;;;;;;5.47;2.60;;;;;;;;;;6157377;23;20001;-69
2022/07/29 14:05:25;;;;;;;3.75;2.50;;;;;;;;;;6157372;23;20085;-69
2022/07/29 14:07:51;;;;;;;4.75;2.70;;;;;;;;;;6156998;23;20020;-68
2022/07/29 14:10:17;;;;;;;5.57;2.75;;;;;;;;;;6156869;23;20069;-68
2022/07/29 14:12:43;;;;;;;3.45;2.42;;;;;;;;;;6156934;23;20025;-68
2022/07/29 14:15:09;;;;;;;6.95;2.72;;;;;;;;;;6157123;23;20056;-69
2022/07/29 14:17:35;;;;;;;7.57;2.80;;;;;;;;;;6157213;23;20005;-69
2022/07/29 14:20:01;;;;;;;6.15;2.40;;;;;;;;;;6156797;23;20384;-69
2022/07/29 14:22:27;;;;;;;7.72;1.92;;;;;;;;;;6156488;23;20049;-69
2022/07/29 14:24:53;;;;;;;3.72;2.58;;;;;;;;;;6156395;23;20057;-72
2022/07/29 14:27:20;;;;;;;8.65;3.40;;;;;;;;;;6156682;23;20005;-73
2022/07/29 14:29:46;;;;;;;5.88;2.65;;;;;;;;;;6157222;23;20006;-68
2022/07/29 14:32:14;;;;;;;6.68;2.40;;;;;;;;;;6156628;23;20049;-68
2022/07/29 14:34:40;;;;;;;2.35;2.15;;;;;;;;;;6156659;23;20010;-68
2022/07/29 14:37:06;;;;;;;3.88;2.47;;;;;;;;;;6157410;23;20060;-68
2022/07/29 14:39:33;;;;;;;4.75;2.80;;;;;;;;;;6156599;23;20079;-69
2022/07/29 14:41:59;;;;;;;3.92;2.47;;;;;;;;;;6156898;23;20005;-69
2022/07/29 14:44:30;;;;;;;5.70;2.63;;;;;;;;;;6157473;23;20080;-69
2022/07/29 14:46:56;;;;;;;5.18;2.47;;;;;;;;;;6156559;23;20010;-68
2022/07/29 14:49:23;;;;;;;4.25;2.33;;;;;;;;;;6156922;23;20001;-67
2022/07/29 14:51:49;;;;;;;4.70;2.55;;;;;;;;;;6156834;23;20080;-67
2022/07/29 14:54:15;;;;;;;5.30;2.53;;;;;;;;;;6155742;23;20025;-68